Time;durP1;ratioP1;P1;durP2;ratioP2;P2;SDS_P1;SDS_P2;PMS_P1;PMS_P2;Temp;Humidity;BMP_temperature;BMP_pressure;BME280_temperature;BME280_humidity;BME280_pressure;Samples;Min_cycle;Max_cycle;Signal;HPM_P1;HPM_P2
2023/10/08 00:01:42;;;;;;;2.05;0.43;;;15.30;99.90;;;;;;5051723;28;20428;-80
2023/10/08 00:04:10;;;;;;;2.75;0.60;;;15.30;99.90;;;;;;5051282;28;20056;-79
2023/10/08 00:06:37;;;;;;;2.88;0.50;;;15.20;99.90;;;;;;5046679;28;20052;-79
2023/10/08 00:09:07;;;;;;;1.73;0.55;;;15.20;99.90;;;;;;5035030;28;20396;-79
2023/10/08 00:11:34;;;;;;;3.35;0.73;;;15.10;99.90;;;;;;5033024;28;20121;-79
2023/10/08 00:14:01;;;;;;;2.65;0.60;;;15.10;99.90;;;;;;5043099;28;20069;-79
2023/10/08 00:16:28;;;;;;;0.93;0.50;;;15.10;99.90;;;;;;5052635;28;20392;-79
2023/10/08 00:18:58;;;;;;;0.50;0.30;;;15.10;99.90;;;;;;5049856;28;20678;-79
2023/10/08 00:21:27;;;;;;;1.60;0.40;;;15.10;99.90;;;;;;5047536;28;20048;-79
2023/10/08 00:23:56;;;;;;;0.70;0.35;;;15.00;99.90;;;;;;5044301;28;20078;-79
2023/10/08 00:26:27;;;;;;;1.23;0.40;;;15.00;99.90;;;;;;5051118;28;20059;-79
2023/10/08 00:29:06;;;;;;;1.63;0.30;;;15.00;99.90;;;;;;5048695;28;20049;-79
2023/10/08 00:31:41;;;;;;;0.75;0.28;;;14.90;99.90;;;;;;5050107;28;20049;-79
2023/10/08 00:34:13;;;;;;;1.92;0.47;;;14.90;99.90;;;;;;5046123;28;20123;-79
2023/10/08 00:36:44;;;;;;;1.33;0.30;;;14.90;99.90;;;;;;5056041;28;20120;-79
2023/10/08 00:39:14;;;;;;;1.05;0.30;;;14.90;99.90;;;;;;5043647;28;20038;-78
2023/10/08 00:41:44;;;;;;;0.85;0.20;;;14.90;99.90;;;;;;5042450;28;20060;-78
2023/10/08 00:44:15;;;;;;;0.20;0.10;;;14.90;99.90;;;;;;5038868;28;20065;-78
2023/10/08 00:46:47;;;;;;;1.13;0.10;;;14.90;99.90;;;;;;5042236;28;20048;-78
2023/10/08 00:51:59;;;;;;;3.05;0.40;;;14.90;99.90;;;;;;5036192;28;20049;-79
2023/10/08 00:54:32;;;;;;;2.88;0.35;;;15.00;99.90;;;;;;5041208;28;20079;-78
2023/10/08 00:57:04;;;;;;;1.98;0.50;;;15.00;99.90;;;;;;5045722;28;20171;-79
2023/10/08 00:59:42;;;;;;;7.10;0.50;;;15.00;99.90;;;;;;5049090;28;20385;-78
2023/10/08 01:02:14;;;;;;;1.10;0.32;;;15.00;99.90;;;;;;5048553;28;20047;-79
2023/10/08 01:04:43;;;;;;;2.22;0.65;;;14.90;99.90;;;;;;5048202;28;20532;-79
2023/10/08 01:07:15;;;;;;;2.00;0.50;;;14.90;99.90;;;;;;5039528;28;20083;-79
2023/10/08 01:09:43;;;;;;;1.88;0.50;;;14.90;99.90;;;;;;5047289;28;20034;-78
2023/10/08 01:12:12;;;;;;;2.90;0.40;;;14.90;99.90;;;;;;5036723;28;20087;-79
2023/10/08 01:14:37;;;;;;;0.73;0.20;;;14.90;99.90;;;;;;5052229;28;20045;-79
2023/10/08 01:17:05;;;;;;;1.58;0.30;;;14.90;99.90;;;;;;5053139;28;20059;-79
2023/10/08 01:19:31;;;;;;;0.63;0.20;;;14.90;99.90;;;;;;5040739;28;20049;-79
2023/10/08 01:21:59;;;;;;;5.10;0.47;;;14.90;99.90;;;;;;5051716;28;20080;-79
2023/10/08 01:24:27;;;;;;;2.42;0.40;;;14.90;99.90;;;;;;5047030;28;20045;-79
2023/10/08 01:26:53;;;;;;;1.48;0.30;;;14.90;99.90;;;;;;5042165;28;20139;-79
2023/10/08 01:29:21;;;;;;;0.95;0.28;;;14.90;99.90;;;;;;5028475;28;20088;-78
2023/10/08 01:31:53;;;;;;;1.85;0.30;;;14.90;99.90;;;;;;5037009;28;20508;-78
2023/10/08 01:34:30;;;;;;;1.35;0.30;;;14.90;99.90;;;;;;5052032;28;20049;-78
2023/10/08 01:36:56;;;;;;;;;;;14.90;99.90;;;;;;5049581;28;20065;-79
2023/10/08 01:39:23;;;;;;;1.90;0.35;;;14.90;99.90;;;;;;5049773;28;19920;-79
2023/10/08 01:41:51;;;;;;;0.95;0.30;;;14.90;99.90;;;;;;5038182;28;20048;-78
2023/10/08 01:44:16;;;;;;;2.40;0.40;;;14.80;99.90;;;;;;5045462;28;20057;-78
2023/10/08 01:46:49;;;;;;;2.90;0.40;;;14.80;99.90;;;;;;5043095;28;20044;-79
2023/10/08 01:49:16;;;;;;;0.90;0.35;;;14.80;99.90;;;;;;5021525;28;20079;-78
2023/10/08 01:51:46;;;;;;;3.85;0.63;;;14.80;99.90;;;;;;5052259;28;20048;-78
2023/10/08 01:54:14;;;;;;;1.48;0.40;;;14.80;99.90;;;;;;5050032;28;20566;-78
2023/10/08 01:56:41;;;;;;;1.45;0.50;;;14.80;99.90;;;;;;5045507;28;20049;-78
2023/10/08 01:59:16;;;;;;;2.60;0.50;;;14.80;99.90;;;;;;5050775;28;20400;-78
2023/10/08 02:01:43;;;;;;;3.85;0.60;;;14.80;99.90;;;;;;5043638;28;20128;-78
2023/10/08 02:04:12;;;;;;;2.90;0.40;;;14.80;99.90;;;;;;5038167;28;20041;-78
2023/10/08 02:06:39;;;;;;;4.95;0.50;;;14.80;99.90;;;;;;5027696;28;20110;-78
2023/10/08 02:09:07;;;;;;;1.98;0.30;;;14.80;99.90;;;;;;5046479;28;20049;-78
2023/10/08 02:11:53;;;;;;;5.72;0.70;;;14.80;99.90;;;;;;5044451;28;20049;-78
2023/10/08 02:14:20;;;;;;;3.22;0.57;;;14.70;99.90;;;;;;5044605;28;20574;-78
2023/10/08 02:16:46;;;;;;;3.20;0.68;;;14.70;99.90;;;;;;5037624;28;20053;-78
2023/10/08 02:19:13;;;;;;;6.03;0.70;;;14.70;99.90;;;;;;5033808;28;20048;-78
2023/10/08 02:21:40;;;;;;;5.78;0.50;;;14.70;99.90;;;;;;5016356;28;20053;-78
2023/10/08 02:24:08;;;;;;;4.75;0.55;;;14.70;99.90;;;;;;5028180;28;20561;-78
2023/10/08 02:26:34;;;;;;;2.40;0.40;;;14.70;99.90;;;;;;5034369;28;20049;-78
2023/10/08 02:29:01;;;;;;;5.32;0.70;;;14.70;99.90;;;;;;5047878;28;20099;-78
2023/10/08 02:31:27;;;;;;;9.68;0.50;;;14.70;99.90;;;;;;5034360;28;20060;-78
2023/10/08 02:33:58;;;;;;;8.55;1.20;;;14.70;99.90;;;;;;5039394;28;20088;-78
2023/10/08 02:36:24;;;;;;;4.05;0.63;;;14.70;99.90;;;;;;5048258;28;20856;-78
2023/10/08 02:38:50;;;;;;;2.90;0.43;;;14.70;99.90;;;;;;5042539;28;20041;-78
2023/10/08 02:41:17;;;;;;;3.10;0.75;;;14.70;99.90;;;;;;5033751;28;20514;-78
2023/10/08 02:43:45;;;;;;;3.90;0.73;;;14.70;99.90;;;;;;5034842;28;20049;-78
2023/10/08 02:46:15;;;;;;;3.17;0.68;;;14.70;99.90;;;;;;5036771;28;20049;-78
2023/10/08 02:48:41;;;;;;;1.85;0.60;;;14.70;99.90;;;;;;5046962;28;20128;-78
2023/10/08 02:51:14;;;;;;;2.55;0.55;;;14.60;99.90;;;;;;5050517;28;20041;-78
2023/10/08 02:53:43;;;;;;;2.05;0.50;;;14.60;99.90;;;;;;5044149;28;20056;-78
2023/10/08 02:56:13;;;;;;;3.22;0.50;;;14.60;99.90;;;;;;5052257;28;20045;-78
2023/10/08 02:58:40;;;;;;;2.38;0.73;;;14.60;99.90;;;;;;5052687;28;20128;-78
2023/10/08 03:01:12;;;;;;;2.45;0.60;;;14.50;99.90;;;;;;5051730;28;20052;-78
2023/10/08 03:03:42;;;;;;;3.03;0.50;;;14.60;99.90;;;;;;5047848;28;20132;-77
2023/10/08 03:06:11;;;;;;;1.73;0.32;;;14.60;99.90;;;;;;5035751;28;20068;-78
2023/10/08 03:08:41;;;;;;;1.75;0.77;;;14.60;99.90;;;;;;5049386;28;20056;-77
2023/10/08 03:11:16;;;;;;;2.03;0.60;;;14.50;99.90;;;;;;5025041;28;20106;-78
2023/10/08 03:13:51;;;;;;;1.48;0.50;;;14.60;99.90;;;;;;5049624;28;20491;-78
2023/10/08 03:16:21;;;;;;;4.32;0.70;;;14.50;99.90;;;;;;5033442;28;20049;-78
2023/10/08 03:18:50;;;;;;;2.45;0.50;;;14.50;99.90;;;;;;5033137;28;20140;-78
2023/10/08 03:21:48;;;;;;;1.42;0.60;;;14.50;99.90;;;;;;5033563;28;20319;-78
2023/10/08 03:24:06;;;;;;;2.22;0.57;;;14.50;99.90;;;;;;5036622;28;20129;-78
2023/10/08 03:29:04;;;;;;;1.30;0.45;;;14.50;99.90;;;;;;5042073;28;20056;-78
2023/10/08 03:34:15;;;;;;;1.50;0.75;;;14.40;99.90;;;;;;5046416;28;20383;-78
2023/10/08 03:36:45;;;;;;;2.30;0.60;;;14.50;99.90;;;;;;5052854;28;20124;-78
2023/10/08 03:39:13;;;;;;;1.48;0.70;;;14.40;99.90;;;;;;5051098;28;20059;-78
2023/10/08 03:41:51;;;;;;;3.40;0.80;;;14.40;99.90;;;;;;5053185;28;20056;-78
2023/10/08 03:44:17;;;;;;;3.13;0.60;;;14.40;99.90;;;;;;5051402;28;20385;-78
2023/10/08 03:46:43;;;;;;;2.88;0.70;;;14.40;99.90;;;;;;5052840;28;20124;-78
2023/10/08 03:49:31;;;;;;;2.25;0.65;;;14.40;99.90;;;;;;5052383;28;20156;-78
2023/10/08 03:51:57;;;;;;;2.38;0.70;;;14.40;99.90;;;;;;5032040;28;20137;-78
2023/10/08 03:54:29;;;;;;;3.08;0.82;;;14.40;99.90;;;;;;5033301;28;20187;-78
2023/10/08 03:56:56;;;;;;;2.13;0.60;;;14.40;99.90;;;;;;5041670;28;20683;-78
2023/10/08 03:59:40;;;;;;;3.63;0.70;;;14.40;99.90;;;;;;5051302;28;20107;-78
2023/10/08 04:02:22;;;;;;;;;;;14.40;99.90;;;;;;5040308;28;20106;-78
2023/10/08 04:04:57;;;;;;;1.58;0.60;;;14.40;99.90;;;;;;5036030;28;20387;-78
2023/10/08 04:12:41;;;;;;;2.95;0.75;;;14.40;99.90;;;;;;5046902;28;20081;-78
2023/10/08 04:15:07;;;;;;;2.15;0.60;;;14.40;99.90;;;;;;5048736;28;20037;-78
2023/10/08 04:17:43;;;;;;;2.90;0.70;;;14.40;99.90;;;;;;5051724;28;20132;-78
2023/10/08 04:23:13;;;;;;;5.22;0.90;;;14.40;99.90;;;;;;5023192;28;20044;-79
2023/10/08 04:25:41;;;;;;;3.95;0.70;;;14.40;99.90;;;;;;5050427;28;20120;-78
2023/10/08 04:28:13;;;;;;;2.83;0.70;;;14.40;99.90;;;;;;5046916;28;20057;-78
2023/10/08 04:30:41;;;;;;;7.35;0.80;;;14.40;99.90;;;;;;5042935;28;20045;-79
2023/10/08 04:33:11;;;;;;;2.13;0.90;;;14.40;99.90;;;;;;5038214;28;20124;-79
2023/10/08 04:35:47;;;;;;;5.43;0.88;;;14.40;99.90;;;;;;5044041;28;20053;-79
2023/10/08 04:38:25;;;;;;;3.30;1.00;;;14.30;99.90;;;;;;5051007;28;20037;-79
2023/10/08 04:40:52;;;;;;;7.20;1.20;;;14.30;99.90;;;;;;5052690;28;20155;-79
2023/10/08 04:43:25;;;;;;;3.63;0.80;;;14.30;99.90;;;;;;5034518;28;20056;-79
2023/10/08 04:45:57;;;;;;;3.28;0.80;;;14.30;99.90;;;;;;5052801;28;20048;-79
2023/10/08 04:48:32;;;;;;;4.55;0.90;;;14.30;99.90;;;;;;5034949;28;20504;-79
2023/10/08 04:50:58;;;;;;;2.53;0.95;;;14.30;99.90;;;;;;5025968;28;20496;-77
2023/10/08 04:53:35;;;;;;;2.75;0.90;;;14.30;99.90;;;;;;5052894;28;20425;-79
2023/10/08 04:56:05;;;;;;;2.88;1.00;;;14.30;99.90;;;;;;5045694;28;20052;-79
2023/10/08 04:58:40;;;;;;;4.22;1.10;;;14.30;99.90;;;;;;5034716;28;20049;-79
2023/10/08 05:01:18;;;;;;;4.28;1.10;;;14.30;99.90;;;;;;5034576;28;20539;-79
2023/10/08 05:04:07;;;;;;;3.47;1.00;;;14.30;99.90;;;;;;5050013;28;20041;-79
2023/10/08 05:12:30;;;;;;;2.80;0.57;;;14.30;99.90;;;;;;5019510;28;20064;-79
2023/10/08 05:34:17;;;;;;;3.53;0.70;;;14.30;99.90;;;;;;5043454;28;20056;-79
2023/10/08 05:36:51;;;;;;;2.28;0.70;;;14.20;99.90;;;;;;5052762;28;20454;-79
2023/10/08 05:41:51;;;;;;;3.55;0.75;;;14.20;99.90;;;;;;5031726;28;20530;-79
2023/10/08 05:46:49;;;;;;;2.80;0.70;;;14.20;99.90;;;;;;5049573;28;20049;-77
2023/10/08 05:49:25;;;;;;;4.88;1.02;;;14.10;99.90;;;;;;5017481;28;20095;-79
2023/10/08 05:54:47;;;;;;;2.63;1.10;;;14.10;99.90;;;;;;5051450;28;20052;-79
2023/10/08 06:03:00;;;;;;;2.67;0.80;;;14.00;99.90;;;;;;5032567;28;20053;-79
2023/10/08 06:05:32;;;;;;;3.67;0.90;;;14.00;99.90;;;;;;5050043;28;20559;-79
2023/10/08 06:08:11;;;;;;;5.40;0.93;;;14.00;99.90;;;;;;5052792;28;20045;-78
2023/10/08 06:13:13;;;;;;;3.63;1.02;;;14.00;99.90;;;;;;5049220;28;20115;-78
2023/10/08 06:16:05;;;;;;;3.90;0.80;;;14.00;99.90;;;;;;5034086;28;20045;-77
2023/10/08 06:18:32;;;;;;;4.38;0.82;;;14.00;99.90;;;;;;5043135;28;20292;-76
2023/10/08 06:21:00;;;;;;;6.75;1.10;;;14.10;99.90;;;;;;5045842;28;20114;-76
2023/10/08 06:23:32;;;;;;;3.40;0.60;;;14.10;99.90;;;;;;5041066;28;20053;-78
2023/10/08 06:28:38;;;;;;;4.05;1.08;;;14.00;99.90;;;;;;5050028;28;20041;-78
2023/10/08 06:31:11;;;;;;;5.00;0.80;;;14.10;99.90;;;;;;5053246;28;20045;-79
2023/10/08 06:33:38;;;;;;;8.30;1.40;;;14.00;99.90;;;;;;5043293;28;20049;-79
2023/10/08 06:36:15;;;;;;;3.55;1.00;;;14.10;99.90;;;;;;5052614;28;20049;-79
2023/10/08 06:38:43;;;;;;;5.88;1.00;;;14.10;99.90;;;;;;5051783;28;20091;-81
2023/10/08 06:43:50;;;;;;;4.30;1.10;;;14.10;99.90;;;;;;5034039;28;20053;-79
2023/10/08 06:46:19;;;;;;;6.85;1.80;;;14.10;99.90;;;;;;5036497;28;20036;-81
2023/10/08 06:48:49;;;;;;;3.25;0.90;;;14.10;99.90;;;;;;5036667;28;20037;-81
2023/10/08 06:51:17;;;;;;;4.45;0.90;;;14.10;99.90;;;;;;5049947;28;20094;-81
2023/10/08 06:53:45;;;;;;;2.33;1.08;;;14.20;99.90;;;;;;5051780;28;20053;-80
2023/10/08 06:56:15;;;;;;;5.00;1.30;;;14.10;99.90;;;;;;5053974;28;20041;-81
2023/10/08 06:58:53;;;;;;;5.15;1.48;;;14.10;99.90;;;;;;5052473;28;20045;-81
2023/10/08 07:01:21;;;;;;;8.10;1.77;;;14.20;99.90;;;;;;5047312;28;20053;-80
2023/10/08 07:03:51;;;;;;;3.42;1.10;;;14.20;99.90;;;;;;5044096;28;20044;-81
2023/10/08 07:06:31;;;;;;;6.18;1.50;;;14.20;99.90;;;;;;5014426;28;20174;-79
2023/10/08 07:08:59;;;;;;;8.52;1.60;;;14.20;99.90;;;;;;5028700;28;20415;-80
2023/10/08 07:11:29;;;;;;;6.05;1.45;;;14.20;99.90;;;;;;5047623;28;20127;-80
2023/10/08 07:13:55;;;;;;;2.47;0.82;;;14.20;99.90;;;;;;5052426;28;20049;-81
2023/10/08 07:16:22;;;;;;;4.15;1.02;;;14.20;99.90;;;;;;5053418;28;20477;-81
2023/10/08 07:18:52;;;;;;;3.55;1.15;;;14.20;99.90;;;;;;5054992;28;20126;-82
2023/10/08 07:21:18;;;;;;;4.22;1.50;;;14.30;99.90;;;;;;5048129;28;20064;-81
2023/10/08 07:23:56;;;;;;;6.53;1.20;;;14.30;99.90;;;;;;5046538;28;20049;-81
2023/10/08 07:26:26;;;;;;;6.47;1.50;;;14.30;99.90;;;;;;5054043;28;20045;-81
2023/10/08 07:28:53;;;;;;;5.65;1.17;;;14.30;99.90;;;;;;5047057;28;20040;-81
2023/10/08 07:31:23;;;;;;;4.45;1.30;;;14.40;99.90;;;;;;5027706;28;20088;-81
2023/10/08 07:33:58;;;;;;;4.75;1.13;;;14.40;99.90;;;;;;5049868;28;20977;-80
2023/10/08 07:36:24;;;;;;;8.20;1.17;;;14.40;99.90;;;;;;5044340;28;20041;-80
2023/10/08 07:38:52;;;;;;;3.33;1.00;;;14.40;99.90;;;;;;5049751;28;20143;-81
2023/10/08 07:41:20;;;;;;;6.78;1.25;;;14.40;99.90;;;;;;5048648;28;20048;-80
2023/10/08 07:43:55;;;;;;;9.68;1.20;;;14.50;99.90;;;;;;5047588;28;20051;-81
2023/10/08 07:46:28;;;;;;;2.95;0.70;;;14.50;99.90;;;;;;5047729;28;20046;-81
2023/10/08 07:48:54;;;;;;;8.88;1.38;;;14.50;99.90;;;;;;5052673;28;20060;-80
2023/10/08 07:51:23;;;;;;;6.10;1.13;;;14.50;99.90;;;;;;5045199;28;20715;-80
2023/10/08 07:53:58;;;;;;;4.80;1.38;;;14.50;99.90;;;;;;5050486;28;20088;-81
2023/10/08 07:56:24;;;;;;;5.53;1.80;;;14.60;99.90;;;;;;5046245;28;20045;-80
2023/10/08 07:58:57;;;;;;;7.68;0.80;;;14.60;99.90;;;;;;5048282;28;20646;-81
2023/10/08 08:01:24;;;;;;;5.32;0.95;;;14.60;99.90;;;;;;5045630;28;20079;-81
2023/10/08 08:03:50;;;;;;;4.63;0.90;;;14.60;99.90;;;;;;5046462;28;20052;-81
2023/10/08 08:06:16;;;;;;;4.50;1.05;;;14.60;99.90;;;;;;5050051;28;20098;-78
2023/10/08 08:08:44;;;;;;;5.55;0.95;;;14.60;99.90;;;;;;5046123;28;20464;-80
2023/10/08 08:11:12;;;;;;;5.47;1.00;;;14.60;99.90;;;;;;5041470;28;20166;-77
2023/10/08 08:13:42;;;;;;;5.55;0.93;;;14.60;99.90;;;;;;5040262;28;20132;-76
2023/10/08 08:16:18;;;;;;;4.47;0.60;;;14.60;99.90;;;;;;5043741;28;20056;-78
2023/10/08 08:18:45;;;;;;;7.15;1.00;;;14.70;99.90;;;;;;5041710;28;20396;-77
2023/10/08 08:21:15;;;;;;;13.40;1.40;;;14.70;99.90;;;;;;5046332;28;20151;-78
2023/10/08 08:23:48;;;;;;;5.97;0.77;;;14.70;99.90;;;;;;5045690;28;20083;-78
2023/10/08 08:26:26;;;;;;;6.85;1.45;;;14.70;99.90;;;;;;5044422;28;20529;-78
2023/10/08 08:28:54;;;;;;;9.82;1.10;;;14.70;99.90;;;;;;5042050;28;20080;-78
2023/10/08 08:31:20;;;;;;;7.30;1.23;;;14.70;99.90;;;;;;5028055;28;20049;-79
2023/10/08 08:34:02;;;;;;;7.38;1.30;;;14.70;99.90;;;;;;5045319;28;20048;-78
2023/10/08 08:36:30;;;;;;;5.43;0.95;;;14.70;99.90;;;;;;5036306;28;20408;-77
2023/10/08 08:38:56;;;;;;;8.75;1.45;;;14.70;99.90;;;;;;5046547;28;20088;-77
2023/10/08 08:41:23;;;;;;;9.38;0.80;;;14.70;99.90;;;;;;5044547;28;20056;-76
2023/10/08 08:43:56;;;;;;;6.40;1.42;;;14.70;99.90;;;;;;5045236;28;20052;-77
2023/10/08 08:46:39;;;;;;;4.72;1.27;;;14.80;99.90;;;;;;5032887;28;20048;-77
2023/10/08 08:49:18;;;;;;;8.82;1.00;;;14.80;99.90;;;;;;5052492;28;20543;-78
2023/10/08 08:51:48;;;;;;;3.58;0.88;;;14.80;99.90;;;;;;5033687;28;20037;-79
2023/10/08 08:54:16;;;;;;;7.22;1.15;;;14.90;99.90;;;;;;5046865;28;20057;-79
2023/10/08 08:56:43;;;;;;;5.70;0.90;;;14.90;99.90;;;;;;5048694;28;20048;-79
2023/10/08 08:59:11;;;;;;;5.97;1.25;;;14.90;99.90;;;;;;5047488;28;20110;-76
2023/10/08 09:01:38;;;;;;;5.00;1.42;;;15.00;99.90;;;;;;5048312;28;20370;-77
2023/10/08 09:04:05;;;;;;;4.07;0.63;;;15.10;99.90;;;;;;5046310;28;20381;-77
2023/10/08 09:06:37;;;;;;;6.22;0.85;;;15.10;99.90;;;;;;5046763;28;20041;-77
2023/10/08 09:09:22;;;;;;;7.13;1.58;;;15.10;99.90;;;;;;5051354;28;20047;-76
2023/10/08 09:11:51;;;;;;;;;;;15.20;99.90;;;;;;5055056;28;20098;-77
2023/10/08 09:14:27;;;;;;;5.65;0.98;;;15.20;99.90;;;;;;5050486;28;19924;-76
2023/10/08 09:17:04;;;;;;;6.25;1.35;;;15.20;99.90;;;;;;5051092;28;20114;-77
2023/10/08 09:19:35;;;;;;;4.57;0.80;;;15.30;99.90;;;;;;5050420;28;20036;-77
2023/10/08 09:22:07;;;;;;;5.57;1.02;;;15.30;99.90;;;;;;5048063;28;20053;-77
2023/10/08 09:24:36;;;;;;;7.82;1.50;;;15.30;99.90;;;;;;5051571;28;20401;-76
2023/10/08 09:27:03;;;;;;;5.45;0.80;;;15.40;99.90;;;;;;5046349;28;20362;-76
2023/10/08 09:29:29;;;;;;;5.75;1.42;;;15.40;99.90;;;;;;5047925;28;20379;-77
2023/10/08 09:31:59;;;;;;;7.68;1.42;;;15.50;99.90;;;;;;5049552;28;20503;-78
2023/10/08 09:34:32;;;;;;;4.90;0.95;;;15.50;99.90;;;;;;5048379;28;20051;-80
2023/10/08 09:36:59;;;;;;;9.77;1.33;;;15.50;99.90;;;;;;5040411;28;20111;-77
2023/10/08 09:39:28;;;;;;;7.05;1.10;;;15.50;99.90;;;;;;5044482;28;20504;-77
2023/10/08 09:41:57;;;;;;;8.70;0.95;;;15.60;99.90;;;;;;5030573;28;20052;-77
2023/10/08 09:44:24;;;;;;;6.05;1.00;;;15.70;99.90;;;;;;5043810;28;20079;-76
2023/10/08 09:47:12;;;;;;;8.25;1.40;;;15.70;99.90;;;;;;5042626;28;20610;-78
2023/10/08 09:49:58;;;;;;;6.50;1.00;;;15.60;99.90;;;;;;5048378;28;20086;-76
2023/10/08 09:52:33;;;;;;;5.05;1.00;;;15.70;99.90;;;;;;5045215;28;20045;-76
2023/10/08 09:55:12;;;;;;;12.02;1.48;;;15.70;99.90;;;;;;5047444;28;20120;-76
2023/10/08 09:57:38;;;;;;;8.88;1.10;;;15.70;99.90;;;;;;5046910;28;20057;-77
2023/10/08 10:00:15;;;;;;;6.75;1.38;;;15.80;99.90;;;;;;5027619;28;20045;-76
2023/10/08 10:02:43;;;;;;;7.85;1.25;;;15.80;99.90;;;;;;5030782;28;20132;-76
2023/10/08 10:05:12;;;;;;;8.25;1.40;;;15.80;99.90;;;;;;5054848;28;20044;-76
2023/10/08 10:07:41;;;;;;;8.70;1.30;;;15.90;99.90;;;;;;5051666;28;20480;-76
2023/10/08 10:10:30;;;;;;;7.05;1.05;;;16.00;99.90;;;;;;5049098;28;20056;-76
2023/10/08 10:13:09;;;;;;;8.77;1.55;;;16.10;99.90;;;;;;5046963;28;20037;-78
2023/10/08 10:15:39;;;;;;;6.20;1.08;;;16.20;99.90;;;;;;5041829;28;20765;-77
2023/10/08 10:18:15;;;;;;;7.55;1.23;;;16.40;99.90;;;;;;5047505;28;20044;-76
2023/10/08 10:20:46;;;;;;;7.13;1.27;;;16.60;99.90;;;;;;5052469;28;20137;-76
2023/10/08 10:23:33;;;;;;;4.22;1.10;;;16.90;99.90;;;;;;5073168;28;20131;-76
2023/10/08 10:26:00;;;;;;;12.45;1.55;;;17.10;99.90;;;;;;5033443;28;20080;-77
2023/10/08 10:28:28;;;;;;;7.13;1.15;;;17.40;99.90;;;;;;5033409;28;20501;-76
2023/10/08 10:30:54;;;;;;;9.38;1.52;;;17.50;99.90;;;;;;5049166;28;20084;-76
2023/10/08 10:33:21;;;;;;;4.63;1.25;;;17.60;99.90;;;;;;5052411;28;20516;-76
2023/10/08 10:35:51;;;;;;;7.53;1.33;;;17.60;99.90;;;;;;5043153;28;20060;-77
2023/10/08 10:38:22;;;;;;;7.18;1.02;;;17.50;99.90;;;;;;5044064;28;20102;-76
2023/10/08 10:40:56;;;;;;;6.15;1.05;;;17.40;99.90;;;;;;5052483;28;20401;-76
2023/10/08 10:43:35;;;;;;;;;;;17.40;99.90;;;;;;5049733;28;20051;-77
2023/10/08 10:48:57;;;;;;;8.93;1.27;;;17.30;99.90;;;;;;5033484;28;20465;-76
2023/10/08 10:51:23;;;;;;;7.78;0.80;;;17.30;99.90;;;;;;5042041;28;20045;-76
2023/10/08 10:54:07;;;;;;;7.70;0.93;;;17.30;99.90;;;;;;5032963;28;20085;-76
2023/10/08 10:56:40;;;;;;;6.45;1.23;;;17.20;99.90;;;;;;5042655;28;20083;-76
2023/10/08 10:59:22;;;;;;;10.55;1.40;;;17.20;99.90;;;;;;5052698;28;20044;-76
2023/10/08 11:01:52;;;;;;;6.13;1.10;;;17.20;99.90;;;;;;5039336;28;20462;-76
2023/10/08 11:04:19;;;;;;;5.57;0.85;;;17.40;99.90;;;;;;5052086;28;20511;-76
2023/10/08 11:06:50;;;;;;;6.97;1.00;;;17.60;99.90;;;;;;5052149;28;20063;-76
2023/10/08 11:09:22;;;;;;;6.50;1.05;;;17.70;99.90;;;;;;5051102;28;20057;-76
2023/10/08 11:11:54;;;;;;;9.70;1.20;;;17.70;99.90;;;;;;5036642;28;20102;-77
2023/10/08 11:14:21;;;;;;;11.13;1.30;;;17.90;99.90;;;;;;5034361;28;20049;-76
2023/10/08 11:16:51;;;;;;;8.65;1.27;;;18.00;99.90;;;;;;5050222;28;20485;-76
2023/10/08 11:19:19;;;;;;;7.95;1.20;;;18.20;99.90;;;;;;5052213;28;20056;-76
2023/10/08 11:21:50;;;;;;;11.00;1.00;;;18.40;99.90;;;;;;5051810;28;20049;-76
2023/10/08 11:24:33;;;;;;;6.82;1.00;;;18.40;99.90;;;;;;5051462;28;20484;-76
2023/10/08 11:27:17;;;;;;;9.38;1.20;;;18.40;99.90;;;;;;5052610;28;20049;-76
2023/10/08 11:29:56;;;;;;;5.20;1.30;;;18.40;99.90;;;;;;5053496;28;20049;-76
2023/10/08 11:32:25;;;;;;;4.80;0.93;;;18.30;99.90;;;;;;5050799;28;20110;-77
2023/10/08 11:35:01;;;;;;;7.63;1.27;;;18.30;99.90;;;;;;5051278;28;20059;-76
2023/10/08 11:37:33;;;;;;;5.18;1.17;;;18.10;99.90;;;;;;5051620;28;20053;-76
2023/10/08 11:40:06;;;;;;;7.63;1.38;;;18.10;99.90;;;;;;5051149;28;20148;-76
2023/10/08 11:45:02;;;;;;;6.35;1.00;;;18.10;99.90;;;;;;5034485;28;20052;-76
2023/10/08 11:47:35;;;;;;;9.55;1.45;;;18.10;99.90;;;;;;5051913;28;20060;-76
2023/10/08 11:50:11;;;;;;;7.05;1.10;;;18.10;99.90;;;;;;5051960;28;20132;-76
2023/10/08 11:52:41;;;;;;;7.95;1.30;;;18.10;99.90;;;;;;5051689;28;20048;-76
2023/10/08 11:55:08;;;;;;;5.15;0.90;;;18.10;99.90;;;;;;5053766;28;20060;-76
2023/10/08 11:57:35;;;;;;;10.27;1.33;;;18.10;99.90;;;;;;5034882;28;20056;-76
2023/10/08 12:00:18;;;;;;;5.35;0.98;;;18.00;99.90;;;;;;5051221;28;20053;-76
2023/10/08 12:02:46;;;;;;;5.10;0.90;;;18.00;99.90;;;;;;5047005;28;20420;-76
2023/10/08 12:05:18;;;;;;;8.02;1.02;;;17.90;99.90;;;;;;5042535;28;20057;-76
2023/10/08 12:07:47;;;;;;;8.07;1.13;;;17.90;99.90;;;;;;5031756;28;20473;-76
2023/10/08 12:10:22;;;;;;;8.82;1.13;;;17.80;99.90;;;;;;5016071;28;20131;-76
2023/10/08 12:12:52;;;;;;;8.27;1.10;;;17.80;99.90;;;;;;5036272;28;20041;-76
2023/10/08 12:15:22;;;;;;;4.93;0.98;;;17.80;99.90;;;;;;5039892;28;20057;-76
2023/10/08 12:18:08;;;;;;;5.95;1.20;;;17.70;99.90;;;;;;5051375;28;20501;-76
2023/10/08 12:20:43;;;;;;;4.22;1.42;;;17.60;99.90;;;;;;5050637;28;20132;-76
2023/10/08 12:23:24;;;;;;;10.05;1.60;;;17.60;99.90;;;;;;5054981;28;20048;-76
2023/10/08 12:25:55;;;;;;;7.68;1.50;;;17.70;99.90;;;;;;5035887;28;20393;-76
2023/10/08 12:28:23;;;;;;;8.07;1.55;;;17.70;99.90;;;;;;5035761;28;20053;-76
2023/10/08 12:30:52;;;;;;;5.70;1.00;;;17.80;99.90;;;;;;5045498;28;20038;-75
2023/10/08 12:33:19;;;;;;;5.75;0.90;;;17.80;99.90;;;;;;5054304;28;20080;-76
2023/10/08 12:35:47;;;;;;;5.20;0.90;;;17.80;99.90;;;;;;5054327;28;20047;-76
2023/10/08 12:38:14;;;;;;;8.80;1.02;;;17.90;99.90;;;;;;5054959;28;20056;-76
2023/10/08 12:41:08;;;;;;;4.70;0.85;;;17.90;99.90;;;;;;5040132;28;20049;-76
2023/10/08 12:43:29;;;;;;;9.73;1.20;;;17.90;99.90;;;;;;5051634;28;20117;-76
2023/10/08 12:45:56;;;;;;;6.13;1.08;;;18.00;99.90;;;;;;5038051;28;20128;-76
2023/10/08 12:48:24;;;;;;;6.95;1.27;;;18.00;99.90;;;;;;5027708;28;20132;-76
2023/10/08 12:50:53;;;;;;;7.28;1.30;;;17.90;99.90;;;;;;5049459;28;20055;-76
2023/10/08 12:53:26;;;;;;;5.97;0.93;;;17.90;99.90;;;;;;5055722;28;20048;-76
2023/10/08 12:55:57;;;;;;;6.47;1.08;;;18.00;99.90;;;;;;5034576;28;20049;-76
2023/10/08 12:58:29;;;;;;;8.10;1.10;;;18.00;99.90;;;;;;5034808;28;20049;-76
2023/10/08 13:00:58;;;;;;;7.22;0.90;;;18.10;99.90;;;;;;5054322;28;20049;-76
2023/10/08 13:03:25;;;;;;;8.30;1.15;;;18.10;99.90;;;;;;5054086;28;20441;-76
2023/10/08 13:05:54;;;;;;;7.13;1.23;;;18.20;99.90;;;;;;5054400;28;20069;-76
2023/10/08 13:08:20;;;;;;;6.32;1.15;;;18.30;99.90;;;;;;5054739;28;20156;-75
2023/10/08 13:10:47;;;;;;;5.75;1.13;;;18.40;99.90;;;;;;5037011;28;20064;-76
2023/10/08 13:13:13;;;;;;;5.00;1.00;;;18.50;99.90;;;;;;5049845;28;20048;-76
2023/10/08 13:15:41;;;;;;;7.32;1.02;;;18.70;99.90;;;;;;5053622;28;20137;-76
2023/10/08 13:18:08;;;;;;;6.63;1.00;;;18.80;99.90;;;;;;5070556;28;20558;-76
2023/10/08 13:20:34;;;;;;;5.68;1.65;;;19.00;99.90;;;;;;5037397;28;20060;-75
2023/10/08 13:23:06;;;;;;;7.05;1.00;;;18.90;99.90;;;;;;5034279;28;20532;-76
2023/10/08 13:25:35;;;;;;;7.55;1.23;;;18.80;99.90;;;;;;5047463;28;20511;-77
2023/10/08 13:28:02;;;;;;;8.13;1.00;;;18.80;99.90;;;;;;5051714;28;20049;-77
2023/10/08 13:30:27;;;;;;;6.25;1.40;;;18.70;99.90;;;;;;5035650;28;20049;-76
2023/10/08 13:32:53;;;;;;;9.77;1.10;;;18.70;99.90;;;;;;5052706;28;20095;-76
2023/10/08 13:35:19;;;;;;;8.13;1.02;;;18.60;99.90;;;;;;5051274;28;20762;-76
2023/10/08 13:37:48;;;;;;;6.10;0.95;;;18.60;99.90;;;;;;5052147;28;20045;-76
2023/10/08 13:40:15;;;;;;;11.38;1.30;;;18.60;99.90;;;;;;5053892;28;20426;-76
2023/10/08 13:42:42;;;;;;;9.23;1.30;;;18.60;99.90;;;;;;5053517;28;20044;-76
2023/10/08 13:45:09;;;;;;;10.05;1.10;;;18.70;99.90;;;;;;5052425;28;20084;-76
2023/10/08 13:47:35;;;;;;;7.35;1.02;;;18.70;99.90;;;;;;5053416;28;20049;-76
2023/10/08 13:50:03;;;;;;;7.78;1.20;;;18.70;99.90;;;;;;5053622;28;20105;-76
2023/10/08 13:52:29;;;;;;;6.78;1.25;;;18.70;99.90;;;;;;5053460;28;20044;-76
2023/10/08 13:54:55;;;;;;;8.30;1.30;;;18.70;99.90;;;;;;5048381;28;20057;-76
2023/10/08 13:57:21;;;;;;;4.68;0.90;;;18.70;99.90;;;;;;5034130;28;20056;-76
2023/10/08 13:59:48;;;;;;;7.75;1.20;;;18.70;99.90;;;;;;5043629;28;20041;-76
2023/10/08 14:02:14;;;;;;;7.35;0.90;;;18.70;99.90;;;;;;5065253;28;20057;-76
2023/10/08 14:04:44;;;;;;;6.18;1.05;;;18.70;99.90;;;;;;5051982;28;20052;-76
2023/10/08 14:07:19;;;;;;;2.30;0.60;;;18.80;99.90;;;;;;5051006;28;20442;-76
2023/10/08 14:09:46;;;;;;;3.95;0.80;;;18.70;99.90;;;;;;5027289;28;20052;-80
2023/10/08 14:12:13;;;;;;;7.30;0.80;;;18.70;99.90;;;;;;5043887;28;20450;-79
2023/10/08 14:14:48;;;;;;;8.75;1.25;;;18.70;99.90;;;;;;5036408;28;20042;-83